sensor_id;sensor_type;location;lat;lon;timestamp;P1;durP1;ratioP1;P2;durP2;ratioP2
25023;SDS011;13033;50.936;5.334;2023-02-28T00:01:31;11.07;;;6.15;;
25023;SDS011;13033;50.936;5.334;2023-02-28T00:03:57;11.07;;;6.15;;
25023;SDS011;13033;50.936;5.334;2023-02-28T00:06:23;14.05;;;6.18;;
25023;SDS011;13033;50.936;5.334;2023-02-28T00:08:49;11.10;;;6.13;;
25023;SDS011;13033;50.936;5.334;2023-02-28T00:11:15;11.88;;;6.40;;
25023;SDS011;13033;50.936;5.334;2023-02-28T00:13:43;14.63;;;6.55;;
25023;SDS011;13033;50.936;5.334;2023-02-28T00:16:17;13.75;;;5.80;;
25023;SDS011;13033;50.936;5.334;2023-02-28T00:18:45;11.70;;;5.93;;
25023;SDS011;13033;50.936;5.334;2023-02-28T00:21:12;16.20;;;6.82;;
25023;SDS011;13033;50.936;5.334;2023-02-28T00:23:38;8.90;;;5.43;;
25023;SDS011;13033;50.936;5.334;2023-02-28T00:26:04;9.48;;;5.95;;
25023;SDS011;13033;50.936;5.334;2023-02-28T00:28:30;11.35;;;6.28;;
25023;SDS011;13033;50.936;5.334;2023-02-28T00:30:55;10.15;;;5.65;;
25023;SDS011;13033;50.936;5.334;2023-02-28T00:33:22;12.30;;;6.22;;
25023;SDS011;13033;50.936;5.334;2023-02-28T00:35:48;9.73;;;6.07;;
25023;SDS011;13033;50.936;5.334;2023-02-28T00:38:14;10.27;;;6.20;;
25023;SDS011;13033;50.936;5.334;2023-02-28T00:40:40;13.13;;;6.82;;
25023;SDS011;13033;50.936;5.334;2023-02-28T00:43:07;11.93;;;6.13;;
25023;SDS011;13033;50.936;5.334;2023-02-28T00:45:32;11.88;;;6.32;;
25023;SDS011;13033;50.936;5.334;2023-02-28T00:47:58;9.68;;;6.68;;
25023;SDS011;13033;50.936;5.334;2023-02-28T00:50:24;11.43;;;6.43;;
25023;SDS011;13033;50.936;5.334;2023-02-28T00:52:49;10.90;;;5.90;;
25023;SDS011;13033;50.936;5.334;2023-02-28T00:55:15;10.70;;;6.50;;
25023;SDS011;13033;50.936;5.334;2023-02-28T00:57:41;11.00;;;6.00;;
25023;SDS011;13033;50.936;5.334;2023-02-28T01:00:07;12.02;;;6.20;;
25023;SDS011;13033;50.936;5.334;2023-02-28T01:02:33;12.85;;;6.28;;
25023;SDS011;13033;50.936;5.334;2023-02-28T01:04:59;10.32;;;6.40;;
25023;SDS011;13033;50.936;5.334;2023-02-28T01:07:24;13.40;;;6.75;;
25023;SDS011;13033;50.936;5.334;2023-02-28T01:09:50;7.85;;;5.80;;
25023;SDS011;13033;50.936;5.334;2023-02-28T01:12:16;9.75;;;6.07;;
25023;SDS011;13033;50.936;5.334;2023-02-28T01:14:41;15.02;;;6.47;;
25023;SDS011;13033;50.936;5.334;2023-02-28T01:17:07;12.38;;;6.63;;
25023;SDS011;13033;50.936;5.334;2023-02-28T01:19:33;11.10;;;6.45;;
25023;SDS011;13033;50.936;5.334;2023-02-28T01:22:00;10.93;;;6.75;;
25023;SDS011;13033;50.936;5.334;2023-02-28T01:24:27;13.27;;;7.05;;
25023;SDS011;13033;50.936;5.334;2023-02-28T01:26:53;9.32;;;6.72;;
25023;SDS011;13033;50.936;5.334;2023-02-28T01:29:18;11.07;;;6.45;;
25023;SDS011;13033;50.936;5.334;2023-02-28T01:31:44;10.02;;;6.70;;
25023;SDS011;13033;50.936;5.334;2023-02-28T01:34:10;9.77;;;6.40;;
25023;SDS011;13033;50.936;5.334;2023-02-28T01:36:35;10.43;;;6.50;;
25023;SDS011;13033;50.936;5.334;2023-02-28T01:39:01;11.48;;;6.90;;
25023;SDS011;13033;50.936;5.334;2023-02-28T01:41:31;9.98;;;6.38;;
25023;SDS011;13033;50.936;5.334;2023-02-28T01:46:28;11.90;;;6.75;;
25023;SDS011;13033;50.936;5.334;2023-02-28T01:49:07;12.07;;;6.88;;
25023;SDS011;13033;50.936;5.334;2023-02-28T01:54:07;11.30;;;6.57;;
25023;SDS011;13033;50.936;5.334;2023-02-28T01:56:38;12.57;;;7.03;;
25023;SDS011;13033;50.936;5.334;2023-02-28T01:59:24;17.10;;;7.43;;
25023;SDS011;13033;50.936;5.334;2023-02-28T02:01:57;11.00;;;6.55;;
25023;SDS011;13033;50.936;5.334;2023-02-28T02:04:23;13.52;;;6.80;;
25023;SDS011;13033;50.936;5.334;2023-02-28T02:06:52;10.95;;;6.55;;
25023;SDS011;13033;50.936;5.334;2023-02-28T02:09:18;14.10;;;6.63;;
25023;SDS011;13033;50.936;5.334;2023-02-28T02:11:43;13.35;;;7.00;;
25023;SDS011;13033;50.936;5.334;2023-02-28T02:22:35;14.63;;;6.80;;
25023;SDS011;13033;50.936;5.334;2023-02-28T02:25:11;10.88;;;6.97;;
25023;SDS011;13033;50.936;5.334;2023-02-28T02:35:46;13.23;;;7.53;;
25023;SDS011;13033;50.936;5.334;2023-02-28T02:38:40;11.73;;;7.32;;
25023;SDS011;13033;50.936;5.334;2023-02-28T02:44:05;18.27;;;7.70;;
25023;SDS011;13033;50.936;5.334;2023-02-28T02:46:44;13.15;;;7.15;;
25023;SDS011;13033;50.936;5.334;2023-02-28T02:49:13;15.73;;;7.93;;
25023;SDS011;13033;50.936;5.334;2023-02-28T02:51:45;12.50;;;7.70;;
25023;SDS011;13033;50.936;5.334;2023-02-28T02:54:14;13.10;;;7.70;;
25023;SDS011;13033;50.936;5.334;2023-02-28T02:56:52;14.05;;;8.07;;
25023;SDS011;13033;50.936;5.334;2023-02-28T02:59:19;18.65;;;8.13;;
25023;SDS011;13033;50.936;5.334;2023-02-28T03:01:49;13.80;;;8.30;;
25023;SDS011;13033;50.936;5.334;2023-02-28T03:04:22;12.77;;;8.02;;
25023;SDS011;13033;50.936;5.334;2023-02-28T03:06:50;12.13;;;7.60;;
25023;SDS011;13033;50.936;5.334;2023-02-28T03:09:23;13.80;;;8.52;;
25023;SDS011;13033;50.936;5.334;2023-02-28T03:11:50;12.55;;;7.35;;
25023;SDS011;13033;50.936;5.334;2023-02-28T03:17:41;13.60;;;7.55;;
25023;SDS011;13033;50.936;5.334;2023-02-28T03:23:19;12.25;;;7.97;;
25023;SDS011;13033;50.936;5.334;2023-02-28T03:25:56;17.08;;;7.43;;
25023;SDS011;13033;50.936;5.334;2023-02-28T03:31:35;14.40;;;7.82;;
25023;SDS011;13033;50.936;5.334;2023-02-28T03:34:15;14.75;;;8.20;;
25023;SDS011;13033;50.936;5.334;2023-02-28T03:36:48;13.25;;;7.68;;
25023;SDS011;13033;50.936;5.334;2023-02-28T03:39:21;18.40;;;9.40;;
25023;SDS011;13033;50.936;5.334;2023-02-28T03:41:56;13.63;;;7.55;;
25023;SDS011;13033;50.936;5.334;2023-02-28T03:49:51;12.07;;;8.02;;
25023;SDS011;13033;50.936;5.334;2023-02-28T03:52:18;12.68;;;7.53;;
25023;SDS011;13033;50.936;5.334;2023-02-28T03:54:50;17.50;;;8.32;;
25023;SDS011;13033;50.936;5.334;2023-02-28T03:57:26;14.50;;;8.52;;
25023;SDS011;13033;50.936;5.334;2023-02-28T03:59:56;19.80;;;8.45;;
25023;SDS011;13033;50.936;5.334;2023-02-28T04:02:29;13.98;;;8.15;;
25023;SDS011;13033;50.936;5.334;2023-02-28T04:04:55;12.30;;;7.97;;
25023;SDS011;13033;50.936;5.334;2023-02-28T04:07:20;16.50;;;7.93;;
25023;SDS011;13033;50.936;5.334;2023-02-28T04:09:46;17.30;;;8.57;;
25023;SDS011;13033;50.936;5.334;2023-02-28T04:12:12;13.30;;;7.50;;
25023;SDS011;13033;50.936;5.334;2023-02-28T04:14:37;15.90;;;8.63;;
25023;SDS011;13033;50.936;5.334;2023-02-28T04:17:03;14.55;;;8.55;;
25023;SDS011;13033;50.936;5.334;2023-02-28T04:19:29;14.73;;;8.45;;
25023;SDS011;13033;50.936;5.334;2023-02-28T04:21:55;15.25;;;8.35;;
25023;SDS011;13033;50.936;5.334;2023-02-28T04:24:24;13.73;;;8.20;;
25023;SDS011;13033;50.936;5.334;2023-02-28T04:26:53;14.73;;;8.95;;
25023;SDS011;13033;50.936;5.334;2023-02-28T04:29:21;16.15;;;8.52;;
25023;SDS011;13033;50.936;5.334;2023-02-28T04:31:49;18.42;;;8.80;;
25023;SDS011;13033;50.936;5.334;2023-02-28T04:34:15;14.80;;;8.38;;
25023;SDS011;13033;50.936;5.334;2023-02-28T04:36:41;16.35;;;8.30;;
25023;SDS011;13033;50.936;5.334;2023-02-28T04:39:07;16.75;;;8.43;;
25023;SDS011;13033;50.936;5.334;2023-02-28T04:41:34;14.73;;;8.40;;
25023;SDS011;13033;50.936;5.334;2023-02-28T04:44:00;14.18;;;8.80;;
25023;SDS011;13033;50.936;5.334;2023-02-28T04:46:26;14.18;;;8.60;;
25023;SDS011;13033;50.936;5.334;2023-02-28T04:48:51;14.55;;;8.63;;
25023;SDS011;13033;50.936;5.334;2023-02-28T04:51:18;12.70;;;8.38;;
25023;SDS011;13033;50.936;5.334;2023-02-28T04:53:44;13.50;;;8.18;;
25023;SDS011;13033;50.936;5.334;2023-02-28T04:56:14;13.10;;;8.25;;
25023;SDS011;13033;50.936;5.334;2023-02-28T04:58:41;15.23;;;8.93;;
25023;SDS011;13033;50.936;5.334;2023-02-28T05:03:48;12.15;;;7.95;;
25023;SDS011;13033;50.936;5.334;2023-02-28T05:06:14;14.27;;;8.40;;
25023;SDS011;13033;50.936;5.334;2023-02-28T05:08:41;15.80;;;8.55;;
25023;SDS011;13033;50.936;5.334;2023-02-28T05:11:17;17.13;;;9.48;;
25023;SDS011;13033;50.936;5.334;2023-02-28T05:13:50;16.75;;;8.57;;
25023;SDS011;13033;50.936;5.334;2023-02-28T05:16:17;13.43;;;9.13;;
25023;SDS011;13033;50.936;5.334;2023-02-28T05:18:44;16.70;;;8.75;;
25023;SDS011;13033;50.936;5.334;2023-02-28T05:23:51;14.32;;;8.95;;
25023;SDS011;13033;50.936;5.334;2023-02-28T05:26:18;15.70;;;9.45;;
25023;SDS011;13033;50.936;5.334;2023-02-28T05:28:44;16.10;;;9.10;;
25023;SDS011;13033;50.936;5.334;2023-02-28T05:31:13;15.23;;;9.20;;
25023;SDS011;13033;50.936;5.334;2023-02-28T05:33:39;15.25;;;8.55;;
25023;SDS011;13033;50.936;5.334;2023-02-28T05:36:05;14.20;;;8.95;;
25023;SDS011;13033;50.936;5.334;2023-02-28T05:38:31;13.93;;;9.07;;
25023;SDS011;13033;50.936;5.334;2023-02-28T05:40:57;18.92;;;10.18;;
25023;SDS011;13033;50.936;5.334;2023-02-28T05:43:23;20.80;;;10.38;;
25023;SDS011;13033;50.936;5.334;2023-02-28T05:45:48;16.38;;;9.65;;
25023;SDS011;13033;50.936;5.334;2023-02-28T05:48:14;16.02;;;9.70;;
25023;SDS011;13033;50.936;5.334;2023-02-28T05:50:40;21.23;;;9.73;;
25023;SDS011;13033;50.936;5.334;2023-02-28T05:53:07;17.17;;;9.85;;
25023;SDS011;13033;50.936;5.334;2023-02-28T05:55:33;19.80;;;10.02;;
25023;SDS011;13033;50.936;5.334;2023-02-28T05:58:01;16.92;;;10.25;;
25023;SDS011;13033;50.936;5.334;2023-02-28T06:00:26;16.50;;;9.25;;
25023;SDS011;13033;50.936;5.334;2023-02-28T06:02:54;16.95;;;9.85;;
25023;SDS011;13033;50.936;5.334;2023-02-28T06:05:23;15.38;;;9.55;;
25023;SDS011;13033;50.936;5.334;2023-02-28T06:07:49;14.48;;;9.65;;
25023;SDS011;13033;50.936;5.334;2023-02-28T06:10:15;15.82;;;9.43;;
25023;SDS011;13033;50.936;5.334;2023-02-28T06:12:41;14.13;;;9.13;;
25023;SDS011;13033;50.936;5.334;2023-02-28T06:15:07;16.55;;;9.70;;
25023;SDS011;13033;50.936;5.334;2023-02-28T06:17:42;17.77;;;9.48;;
25023;SDS011;13033;50.936;5.334;2023-02-28T06:20:10;20.30;;;10.13;;
25023;SDS011;13033;50.936;5.334;2023-02-28T06:22:37;13.90;;;8.90;;
25023;SDS011;13033;50.936;5.334;2023-02-28T06:25:04;17.75;;;10.02;;
25023;SDS011;13033;50.936;5.334;2023-02-28T06:27:31;17.13;;;9.77;;
25023;SDS011;13033;50.936;5.334;2023-02-28T06:29:57;18.60;;;9.63;;
25023;SDS011;13033;50.936;5.334;2023-02-28T06:32:23;17.98;;;9.85;;
25023;SDS011;13033;50.936;5.334;2023-02-28T06:34:49;17.67;;;10.18;;
25023;SDS011;13033;50.936;5.334;2023-02-28T06:37:15;22.23;;;10.13;;
25023;SDS011;13033;50.936;5.334;2023-02-28T06:39:42;18.05;;;9.73;;
25023;SDS011;13033;50.936;5.334;2023-02-28T06:42:08;17.33;;;9.65;;
25023;SDS011;13033;50.936;5.334;2023-02-28T06:44:33;15.40;;;9.45;;
25023;SDS011;13033;50.936;5.334;2023-02-28T06:47:03;15.32;;;9.77;;
25023;SDS011;13033;50.936;5.334;2023-02-28T06:49:30;16.98;;;9.30;;
25023;SDS011;13033;50.936;5.334;2023-02-28T06:51:58;15.35;;;9.75;;
25023;SDS011;13033;50.936;5.334;2023-02-28T06:54:23;18.77;;;9.40;;
25023;SDS011;13033;50.936;5.334;2023-02-28T06:56:49;15.15;;;8.98;;
25023;SDS011;13033;50.936;5.334;2023-02-28T06:59:15;19.98;;;9.98;;
25023;SDS011;13033;50.936;5.334;2023-02-28T07:01:41;16.00;;;9.20;;
25023;SDS011;13033;50.936;5.334;2023-02-28T07:04:07;15.07;;;8.88;;
25023;SDS011;13033;50.936;5.334;2023-02-28T07:06:33;17.50;;;9.13;;
25023;SDS011;13033;50.936;5.334;2023-02-28T07:08:59;12.30;;;8.07;;
25023;SDS011;13033;50.936;5.334;2023-02-28T07:11:26;14.20;;;8.32;;
25023;SDS011;13033;50.936;5.334;2023-02-28T07:13:53;16.88;;;8.90;;
25023;SDS011;13033;50.936;5.334;2023-02-28T07:16:20;14.90;;;8.20;;
25023;SDS011;13033;50.936;5.334;2023-02-28T07:18:47;11.68;;;8.02;;
25023;SDS011;13033;50.936;5.334;2023-02-28T07:21:13;15.20;;;8.48;;
25023;SDS011;13033;50.936;5.334;2023-02-28T07:23:39;17.40;;;8.50;;
25023;SDS011;13033;50.936;5.334;2023-02-28T07:26:07;16.98;;;8.52;;
25023;SDS011;13033;50.936;5.334;2023-02-28T07:28:36;21.77;;;8.63;;
25023;SDS011;13033;50.936;5.334;2023-02-28T07:31:05;12.52;;;7.57;;
25023;SDS011;13033;50.936;5.334;2023-02-28T07:33:32;15.55;;;8.07;;
25023;SDS011;13033;50.936;5.334;2023-02-28T07:36:03;13.55;;;7.82;;
25023;SDS011;13033;50.936;5.334;2023-02-28T07:38:31;14.52;;;8.00;;
25023;SDS011;13033;50.936;5.334;2023-02-28T07:40:58;12.52;;;7.30;;
25023;SDS011;13033;50.936;5.334;2023-02-28T07:43:24;15.48;;;7.75;;
25023;SDS011;13033;50.936;5.334;2023-02-28T07:45:50;14.27;;;7.30;;
25023;SDS011;13033;50.936;5.334;2023-02-28T07:48:15;12.43;;;7.07;;
25023;SDS011;13033;50.936;5.334;2023-02-28T07:50:41;13.90;;;7.28;;
25023;SDS011;13033;50.936;5.334;2023-02-28T07:53:07;12.52;;;8.07;;
25023;SDS011;13033;50.936;5.334;2023-02-28T07:55:32;11.38;;;6.82;;
25023;SDS011;13033;50.936;5.334;2023-02-28T07:57:58;15.10;;;7.72;;
25023;SDS011;13033;50.936;5.334;2023-02-28T08:00:24;10.73;;;6.97;;
25023;SDS011;13033;50.936;5.334;2023-02-28T08:02:50;11.68;;;7.32;;
25023;SDS011;13033;50.936;5.334;2023-02-28T08:05:16;15.50;;;7.03;;
25023;SDS011;13033;50.936;5.334;2023-02-28T08:07:42;13.20;;;6.53;;
25023;SDS011;13033;50.936;5.334;2023-02-28T08:10:08;14.25;;;6.53;;
25023;SDS011;13033;50.936;5.334;2023-02-28T08:12:35;8.73;;;6.28;;
25023;SDS011;13033;50.936;5.334;2023-02-28T08:15:02;8.93;;;5.63;;
25023;SDS011;13033;50.936;5.334;2023-02-28T08:17:28;11.07;;;6.72;;
25023;SDS011;13033;50.936;5.334;2023-02-28T08:19:54;12.13;;;6.50;;
25023;SDS011;13033;50.936;5.334;2023-02-28T08:22:20;9.57;;;5.68;;
25023;SDS011;13033;50.936;5.334;2023-02-28T08:24:45;9.88;;;5.10;;
25023;SDS011;13033;50.936;5.334;2023-02-28T08:27:11;14.35;;;6.03;;
25023;SDS011;13033;50.936;5.334;2023-02-28T08:29:38;9.10;;;5.70;;
25023;SDS011;13033;50.936;5.334;2023-02-28T08:32:04;9.45;;;5.38;;
25023;SDS011;13033;50.936;5.334;2023-02-28T08:34:31;10.25;;;5.65;;
25023;SDS011;13033;50.936;5.334;2023-02-28T08:36:57;10.23;;;5.32;;
25023;SDS011;13033;50.936;5.334;2023-02-28T08:39:22;7.28;;;4.93;;
25023;SDS011;13033;50.936;5.334;2023-02-28T08:41:48;14.23;;;5.45;;
25023;SDS011;13033;50.936;5.334;2023-02-28T08:44:14;11.80;;;5.40;;
25023;SDS011;13033;50.936;5.334;2023-02-28T08:46:39;8.90;;;4.72;;
25023;SDS011;13033;50.936;5.334;2023-02-28T08:49:05;15.07;;;5.60;;
25023;SDS011;13033;50.936;5.334;2023-02-28T08:51:31;8.38;;;4.57;;
25023;SDS011;13033;50.936;5.334;2023-02-28T08:53:58;7.93;;;4.38;;
25023;SDS011;13033;50.936;5.334;2023-02-28T08:56:25;7.93;;;4.30;;
25023;SDS011;13033;50.936;5.334;2023-02-28T08:58:53;7.97;;;4.40;;
25023;SDS011;13033;50.936;5.334;2023-02-28T09:01:21;14.13;;;4.85;;
25023;SDS011;13033;50.936;5.334;2023-02-28T09:03:49;7.78;;;4.40;;
25023;SDS011;13033;50.936;5.334;2023-02-28T09:06:17;10.52;;;4.88;;
25023;SDS011;13033;50.936;5.334;2023-02-28T09:08:44;8.05;;;4.43;;
25023;SDS011;13033;50.936;5.334;2023-02-28T09:11:09;6.72;;;4.40;;
25023;SDS011;13033;50.936;5.334;2023-02-28T09:13:36;5.90;;;4.32;;
25023;SDS011;13033;50.936;5.334;2023-02-28T09:16:03;7.32;;;3.97;;
25023;SDS011;13033;50.936;5.334;2023-02-28T09:18:30;7.05;;;4.13;;
25023;SDS011;13033;50.936;5.334;2023-02-28T09:20:56;6.68;;;3.72;;
25023;SDS011;13033;50.936;5.334;2023-02-28T09:23:22;6.20;;;4.03;;
25023;SDS011;13033;50.936;5.334;2023-02-28T09:25:50;7.10;;;3.70;;
25023;SDS011;13033;50.936;5.334;2023-02-28T09:28:17;6.53;;;3.67;;
25023;SDS011;13033;50.936;5.334;2023-02-28T09:30:44;7.18;;;3.33;;
25023;SDS011;13033;50.936;5.334;2023-02-28T09:33:11;6.35;;;3.35;;
25023;SDS011;13033;50.936;5.334;2023-02-28T09:35:38;4.65;;;3.15;;
25023;SDS011;13033;50.936;5.334;2023-02-28T09:38:04;9.35;;;3.75;;
25023;SDS011;13033;50.936;5.334;2023-02-28T09:40:30;5.32;;;2.55;;
25023;SDS011;13033;50.936;5.334;2023-02-28T09:42:56;7.25;;;2.67;;
25023;SDS011;13033;50.936;5.334;2023-02-28T09:45:26;5.20;;;2.60;;
25023;SDS011;13033;50.936;5.334;2023-02-28T09:47:54;6.32;;;2.83;;
25023;SDS011;13033;50.936;5.334;2023-02-28T09:50:29;6.65;;;2.20;;
25023;SDS011;13033;50.936;5.334;2023-02-28T09:53:11;3.47;;;2.25;;
25023;SDS011;13033;50.936;5.334;2023-02-28T09:55:58;5.28;;;2.72;;
25023;SDS011;13033;50.936;5.334;2023-02-28T10:03:56;4.72;;;2.42;;
25023;SDS011;13033;50.936;5.334;2023-02-28T10:06:30;3.45;;;2.58;;
25023;SDS011;13033;50.936;5.334;2023-02-28T10:09:18;3.35;;;2.50;;
25023;SDS011;13033;50.936;5.334;2023-02-28T10:11:52;12.32;;;2.33;;
25023;SDS011;13033;50.936;5.334;2023-02-28T10:14:22;3.40;;;2.45;;
25023;SDS011;13033;50.936;5.334;2023-02-28T10:16:58;5.45;;;2.72;;
25023;SDS011;13033;50.936;5.334;2023-02-28T10:20:07;4.40;;;2.67;;
25023;SDS011;13033;50.936;5.334;2023-02-28T10:22:34;4.50;;;2.80;;
25023;SDS011;13033;50.936;5.334;2023-02-28T10:25:32;3.20;;;2.60;;
25023;SDS011;13033;50.936;5.334;2023-02-28T10:28:01;4.20;;;2.80;;
25023;SDS011;13033;50.936;5.334;2023-02-28T10:30:34;5.30;;;2.53;;
25023;SDS011;13033;50.936;5.334;2023-02-28T10:33:04;3.75;;;2.35;;
25023;SDS011;13033;50.936;5.334;2023-02-28T10:35:29;9.30;;;2.40;;
25023;SDS011;13033;50.936;5.334;2023-02-28T10:37:56;3.63;;;2.40;;
25023;SDS011;13033;50.936;5.334;2023-02-28T10:42:56;3.10;;;2.05;;
25023;SDS011;13033;50.936;5.334;2023-02-28T10:45:22;3.00;;;2.35;;
25023;SDS011;13033;50.936;5.334;2023-02-28T10:47:58;3.85;;;2.47;;
25023;SDS011;13033;50.936;5.334;2023-02-28T10:55:35;3.78;;;2.50;;
25023;SDS011;13033;50.936;5.334;2023-02-28T10:58:02;6.68;;;2.65;;
25023;SDS011;13033;50.936;5.334;2023-02-28T11:00:32;4.45;;;2.30;;
25023;SDS011;13033;50.936;5.334;2023-02-28T11:03:00;3.25;;;2.25;;
25023;SDS011;13033;50.936;5.334;2023-02-28T11:05:33;4.03;;;2.15;;
25023;SDS011;13033;50.936;5.334;2023-02-28T11:08:12;4.75;;;2.30;;
25023;SDS011;13033;50.936;5.334;2023-02-28T11:10:55;3.92;;;1.80;;
25023;SDS011;13033;50.936;5.334;2023-02-28T11:13:32;9.95;;;2.15;;
25023;SDS011;13033;50.936;5.334;2023-02-28T11:16:00;2.70;;;1.95;;
25023;SDS011;13033;50.936;5.334;2023-02-28T11:21:19;5.50;;;2.42;;
25023;SDS011;13033;50.936;5.334;2023-02-28T11:23:56;3.92;;;2.22;;
25023;SDS011;13033;50.936;5.334;2023-02-28T11:26:45;3.92;;;2.10;;
25023;SDS011;13033;50.936;5.334;2023-02-28T11:29:17;3.50;;;2.10;;
25023;SDS011;13033;50.936;5.334;2023-02-28T11:31:45;3.45;;;2.20;;
25023;SDS011;13033;50.936;5.334;2023-02-28T11:34:44;2.53;;;1.88;;
25023;SDS011;13033;50.936;5.334;2023-02-28T11:37:14;7.10;;;2.40;;
25023;SDS011;13033;50.936;5.334;2023-02-28T11:39:43;2.95;;;2.10;;
25023;SDS011;13033;50.936;5.334;2023-02-28T11:47:47;3.95;;;2.42;;
25023;SDS011;13033;50.936;5.334;2023-02-28T11:50:24;4.93;;;2.30;;
25023;SDS011;13033;50.936;5.334;2023-02-28T11:56:05;2.83;;;2.05;;
25023;SDS011;13033;50.936;5.334;2023-02-28T12:12:36;4.78;;;2.30;;
25023;SDS011;13033;50.936;5.334;2023-02-28T12:17:55;2.72;;;2.20;;
25023;SDS011;13033;50.936;5.334;2023-02-28T12:25:54;5.32;;;2.25;;
25023;SDS011;13033;50.936;5.334;2023-02-28T12:28:44;3.30;;;2.30;;
25023;SDS011;13033;50.936;5.334;2023-02-28T12:31:20;4.60;;;2.35;;
25023;SDS011;13033;50.936;5.334;2023-02-28T12:33:52;4.47;;;2.28;;
25023;SDS011;13033;50.936;5.334;2023-02-28T12:36:22;2.83;;;2.40;;
25023;SDS011;13033;50.936;5.334;2023-02-28T12:44:32;3.80;;;2.60;;
25023;SDS011;13033;50.936;5.334;2023-02-28T12:47:15;4.55;;;3.00;;
25023;SDS011;13033;50.936;5.334;2023-02-28T12:49:46;3.65;;;2.42;;
25023;SDS011;13033;50.936;5.334;2023-02-28T12:52:30;7.60;;;2.60;;
25023;SDS011;13033;50.936;5.334;2023-02-28T12:55:11;6.07;;;3.58;;
25023;SDS011;13033;50.936;5.334;2023-02-28T12:57:50;5.90;;;2.45;;
25023;SDS011;13033;50.936;5.334;2023-02-28T13:00:34;5.53;;;2.75;;
25023;SDS011;13033;50.936;5.334;2023-02-28T13:05:44;3.47;;;2.72;;
25023;SDS011;13033;50.936;5.334;2023-02-28T13:08:17;3.53;;;2.45;;
25023;SDS011;13033;50.936;5.334;2023-02-28T13:10:59;3.45;;;2.85;;
25023;SDS011;13033;50.936;5.334;2023-02-28T13:13:26;4.32;;;2.35;;
25023;SDS011;13033;50.936;5.334;2023-02-28T13:15:58;7.15;;;2.92;;
25023;SDS011;13033;50.936;5.334;2023-02-28T13:18:42;4.22;;;2.47;;
25023;SDS011;13033;50.936;5.334;2023-02-28T13:21:32;3.90;;;2.92;;
25023;SDS011;13033;50.936;5.334;2023-02-28T13:24:08;5.47;;;3.30;;
25023;SDS011;13033;50.936;5.334;2023-02-28T13:31:50;4.50;;;2.97;;
25023;SDS011;13033;50.936;5.334;2023-02-28T13:34:36;7.55;;;3.20;;
25023;SDS011;13033;50.936;5.334;2023-02-28T13:47:29;4.85;;;3.42;;
25023;SDS011;13033;50.936;5.334;2023-02-28T14:06:54;5.03;;;2.80;;
25023;SDS011;13033;50.936;5.334;2023-02-28T14:09:23;6.28;;;3.20;;
25023;SDS011;13033;50.936;5.334;2023-02-28T14:11:55;12.32;;;3.30;;
25023;SDS011;13033;50.936;5.334;2023-02-28T14:17:06;5.30;;;3.63;;
25023;SDS011;13033;50.936;5.334;2023-02-28T14:19:37;4.80;;;3.20;;
25023;SDS011;13033;50.936;5.334;2023-02-28T14:22:15;5.50;;;3.53;;
25023;SDS011;13033;50.936;5.334;2023-02-28T14:36:04;3.65;;;2.85;;
25023;SDS011;13033;50.936;5.334;2023-02-28T14:38:43;5.25;;;3.10;;
25023;SDS011;13033;50.936;5.334;2023-02-28T14:41:16;9.60;;;3.22;;
25023;SDS011;13033;50.936;5.334;2023-02-28T14:43:50;5.88;;;3.42;;
25023;SDS011;13033;50.936;5.334;2023-02-28T14:46:20;8.13;;;3.70;;
25023;SDS011;13033;50.936;5.334;2023-02-28T14:48:50;5.20;;;2.80;;
25023;SDS011;13033;50.936;5.334;2023-02-28T14:51:22;4.32;;;3.03;;
25023;SDS011;13033;50.936;5.334;2023-02-28T14:53:50;4.63;;;2.88;;
25023;SDS011;13033;50.936;5.334;2023-02-28T14:56:22;5.38;;;3.35;;
25023;SDS011;13033;50.936;5.334;2023-02-28T14:59:21;3.05;;;2.58;;
25023;SDS011;13033;50.936;5.334;2023-02-28T15:01:50;4.43;;;3.00;;
25023;SDS011;13033;50.936;5.334;2023-02-28T15:04:22;5.85;;;2.90;;
25023;SDS011;13033;50.936;5.334;2023-02-28T15:07:08;3.65;;;2.63;;
25023;SDS011;13033;50.936;5.334;2023-02-28T15:09:35;4.32;;;2.92;;
25023;SDS011;13033;50.936;5.334;2023-02-28T15:12:01;3.97;;;2.78;;
25023;SDS011;13033;50.936;5.334;2023-02-28T15:14:27;3.95;;;3.03;;
25023;SDS011;13033;50.936;5.334;2023-02-28T15:17:01;5.68;;;3.00;;
25023;SDS011;13033;50.936;5.334;2023-02-28T15:19:34;9.52;;;3.38;;
25023;SDS011;13033;50.936;5.334;2023-02-28T15:22:06;4.13;;;2.80;;
25023;SDS011;13033;50.936;5.334;2023-02-28T15:24:39;4.65;;;3.05;;
25023;SDS011;13033;50.936;5.334;2023-02-28T15:27:14;5.25;;;2.90;;
25023;SDS011;13033;50.936;5.334;2023-02-28T15:29:50;6.00;;;3.50;;
25023;SDS011;13033;50.936;5.334;2023-02-28T15:32:24;5.80;;;3.35;;
25023;SDS011;13033;50.936;5.334;2023-02-28T15:34:50;6.35;;;3.22;;
25023;SDS011;13033;50.936;5.334;2023-02-28T15:40:05;5.18;;;3.33;;
25023;SDS011;13033;50.936;5.334;2023-02-28T15:42:40;4.25;;;3.10;;
25023;SDS011;13033;50.936;5.334;2023-02-28T15:45:55;4.38;;;3.20;;
25023;SDS011;13033;50.936;5.334;2023-02-28T15:48:02;7.63;;;3.30;;
25023;SDS011;13033;50.936;5.334;2023-02-28T15:50:28;5.05;;;2.95;;
25023;SDS011;13033;50.936;5.334;2023-02-28T15:52:54;4.72;;;3.03;;
25023;SDS011;13033;50.936;5.334;2023-02-28T15:55:24;4.68;;;3.10;;
25023;SDS011;13033;50.936;5.334;2023-02-28T15:57:53;5.25;;;3.05;;
25023;SDS011;13033;50.936;5.334;2023-02-28T16:00:24;5.80;;;3.38;;
25023;SDS011;13033;50.936;5.334;2023-02-28T16:02:52;4.63;;;3.20;;
25023;SDS011;13033;50.936;5.334;2023-02-28T16:05:22;6.20;;;3.67;;
25023;SDS011;13033;50.936;5.334;2023-02-28T16:07:53;4.20;;;2.97;;
25023;SDS011;13033;50.936;5.334;2023-02-28T16:10:20;6.28;;;3.00;;
25023;SDS011;13033;50.936;5.334;2023-02-28T16:12:50;5.88;;;3.40;;
25023;SDS011;13033;50.936;5.334;2023-02-28T16:15:21;4.15;;;3.03;;
25023;SDS011;13033;50.936;5.334;2023-02-28T16:17:51;6.47;;;3.30;;
25023;SDS011;13033;50.936;5.334;2023-02-28T16:20:19;5.90;;;3.17;;
25023;SDS011;13033;50.936;5.334;2023-02-28T16:22:47;4.65;;;3.03;;
25023;SDS011;13033;50.936;5.334;2023-02-28T16:25:13;5.47;;;3.20;;
25023;SDS011;13033;50.936;5.334;2023-02-28T16:27:41;5.03;;;3.35;;
25023;SDS011;13033;50.936;5.334;2023-02-28T16:30:14;4.13;;;2.92;;
25023;SDS011;13033;50.936;5.334;2023-02-28T16:32:51;4.35;;;3.22;;
25023;SDS011;13033;50.936;5.334;2023-02-28T16:35:19;5.55;;;2.97;;
25023;SDS011;13033;50.936;5.334;2023-02-28T16:37:45;4.72;;;3.13;;
25023;SDS011;13033;50.936;5.334;2023-02-28T16:40:18;4.20;;;3.35;;
25023;SDS011;13033;50.936;5.334;2023-02-28T16:42:52;5.32;;;3.42;;
25023;SDS011;13033;50.936;5.334;2023-02-28T16:47:49;5.45;;;2.90;;
25023;SDS011;13033;50.936;5.334;2023-02-28T16:50:16;5.25;;;3.15;;
25023;SDS011;13033;50.936;5.334;2023-02-28T16:52:46;5.80;;;3.33;;
25023;SDS011;13033;50.936;5.334;2023-02-28T16:55:13;5.95;;;3.25;;
25023;SDS011;13033;50.936;5.334;2023-02-28T16:57:39;5.80;;;3.33;;
25023;SDS011;13033;50.936;5.334;2023-02-28T17:00:06;4.28;;;2.95;;
25023;SDS011;13033;50.936;5.334;2023-02-28T17:02:33;4.63;;;3.05;;
25023;SDS011;13033;50.936;5.334;2023-02-28T17:04:59;4.05;;;2.88;;
25023;SDS011;13033;50.936;5.334;2023-02-28T17:07:25;8.30;;;3.42;;
25023;SDS011;13033;50.936;5.334;2023-02-28T17:09:51;8.85;;;3.65;;
25023;SDS011;13033;50.936;5.334;2023-02-28T17:12:17;6.13;;;3.50;;
25023;SDS011;13033;50.936;5.334;2023-02-28T17:14:43;7.95;;;3.17;;
25023;SDS011;13033;50.936;5.334;2023-02-28T17:17:16;4.80;;;3.55;;
25023;SDS011;13033;50.936;5.334;2023-02-28T17:19:45;6.10;;;3.17;;
25023;SDS011;13033;50.936;5.334;2023-02-28T17:22:10;6.47;;;3.08;;
25023;SDS011;13033;50.936;5.334;2023-02-28T17:24:36;6.05;;;3.15;;
25023;SDS011;13033;50.936;5.334;2023-02-28T17:27:03;5.78;;;3.50;;